Time;durP1;ratioP1;P1;durP2;ratioP2;P2;SDS_P1;SDS_P2;PMS_P1;PMS_P2;Temp;Humidity;BMP_temperature;BMP_pressure;BME280_temperature;BME280_humidity;BME280_pressure;Samples;Min_cycle;Max_cycle;Signal;HPM_P1;HPM_P2
2022/07/31 00:02:15;;;;;;;7.45;2.20;;;19.40;95.90;;;;;;5052095;28;20070;-66
2022/07/31 00:04:41;;;;;;;5.20;2.30;;;19.40;96.00;;;;;;5052003;28;20033;-66
2022/07/31 00:07:10;;;;;;;5.35;2.30;;;19.40;96.10;;;;;;5051833;28;20064;-66
2022/07/31 00:09:38;;;;;;;4.53;1.98;;;19.40;96.10;;;;;;5052275;28;20124;-65
2022/07/31 00:12:04;;;;;;;4.20;1.92;;;19.40;96.10;;;;;;5034949;28;20041;-66
2022/07/31 00:14:30;;;;;;;3.75;2.28;;;19.30;96.20;;;;;;5067637;28;20040;-66
2022/07/31 00:16:56;;;;;;;8.15;2.20;;;19.40;96.30;;;;;;5056908;28;20491;-66
2022/07/31 00:19:22;;;;;;;5.18;2.25;;;19.40;96.30;;;;;;5075558;28;20041;-67
2022/07/31 00:21:50;;;;;;;3.58;2.13;;;19.40;96.30;;;;;;5063291;28;20037;-66
2022/07/31 00:24:16;;;;;;;5.57;2.10;;;19.40;96.40;;;;;;5037720;28;20167;-66
2022/07/31 00:26:41;;;;;;;7.45;2.47;;;19.40;96.50;;;;;;5045401;28;20514;-68
2022/07/31 00:29:07;;;;;;;5.28;2.25;;;19.30;96.50;;;;;;5038999;28;20036;-67
2022/07/31 00:31:33;;;;;;;3.83;2.10;;;19.40;96.60;;;;;;5055555;28;20056;-66
2022/07/31 00:33:59;;;;;;;4.70;2.20;;;19.30;96.60;;;;;;5055679;28;20136;-67
2022/07/31 00:36:24;;;;;;;4.97;1.98;;;19.30;96.70;;;;;;5054982;28;20127;-65
2022/07/31 00:38:50;;;;;;;5.43;2.10;;;19.30;96.70;;;;;;5056984;28;20033;-65
2022/07/31 00:41:16;;;;;;;6.47;2.05;;;19.30;96.80;;;;;;5074971;28;20043;-68
2022/07/31 00:43:44;;;;;;;6.95;2.30;;;19.30;96.80;;;;;;5040521;28;20215;-67
2022/07/31 00:46:09;;;;;;;;;;;19.40;96.80;;;;;;5073727;28;20032;-66
2022/07/31 00:48:35;;;;;;;5.85;2.05;;;19.30;96.80;;;;;;5055638;28;19974;-66
2022/07/31 00:51:01;;;;;;;4.10;1.90;;;19.30;96.80;;;;;;5037250;28;20063;-66
2022/07/31 00:53:26;;;;;;;5.32;2.10;;;19.30;96.80;;;;;;5054999;28;20041;-66
2022/07/31 00:55:52;;;;;;;5.30;2.10;;;19.30;96.80;;;;;;5055407;28;20151;-66
2022/07/31 00:58:19;;;;;;;8.07;2.30;;;19.30;96.80;;;;;;5067091;28;20123;-66
2022/07/31 01:00:45;;;;;;;6.75;2.20;;;19.30;96.90;;;;;;5046076;28;20048;-67
2022/07/31 01:03:11;;;;;;;5.68;2.10;;;19.20;96.80;;;;;;5068989;28;20048;-66
2022/07/31 01:05:40;;;;;;;9.88;2.33;;;19.30;96.90;;;;;;5061267;28;20123;-66
2022/07/31 01:08:06;;;;;;;7.93;2.30;;;19.30;96.90;;;;;;5055272;28;20091;-66
2022/07/31 01:10:56;;;;;;;6.75;2.05;;;19.20;96.90;;;;;;5054827;28;20037;-66
2022/07/31 01:13:44;;;;;;;6.50;2.30;;;19.20;96.90;;;;;;5055082;28;20445;-67
2022/07/31 01:16:14;;;;;;;4.63;2.20;;;19.20;97.10;;;;;;5062162;28;20080;-66
2022/07/31 01:18:41;;;;;;;6.28;2.38;;;19.20;97.00;;;;;;5071066;28;20032;-66
2022/07/31 01:21:12;;;;;;;8.23;2.38;;;19.20;97.10;;;;;;5056223;28;20055;-66
2022/07/31 01:23:37;;;;;;;7.30;2.30;;;19.10;97.10;;;;;;5036438;28;20045;-65
2022/07/31 01:26:42;;;;;;;5.15;2.05;;;19.10;97.10;;;;;;5052116;28;20048;-66
2022/07/31 01:29:26;;;;;;;7.35;2.70;;;19.10;97.10;;;;;;5063018;28;20135;-67
2022/07/31 01:32:09;;;;;;;5.10;2.40;;;19.10;97.20;;;;;;5053960;28;20056;-67
2022/07/31 01:34:41;;;;;;;3.88;2.20;;;19.10;97.20;;;;;;5054125;28;20512;-66
2022/07/31 01:37:19;;;;;;;4.55;2.25;;;19.10;97.20;;;;;;5054313;28;20048;-68
2022/07/31 01:39:51;;;;;;;5.07;2.42;;;19.10;97.30;;;;;;5036332;28;20059;-67
2022/07/31 01:42:19;;;;;;;8.02;2.40;;;19.00;97.50;;;;;;5055172;28;20037;-67
2022/07/31 01:44:51;;;;;;;6.90;2.58;;;19.00;97.30;;;;;;5053766;28;20491;-67
2022/07/31 01:47:20;;;;;;;6.82;2.88;;;19.00;97.30;;;;;;5029911;28;20072;-65
2022/07/31 01:49:49;;;;;;;7.07;2.70;;;19.00;97.40;;;;;;5073841;28;20171;-67
2022/07/31 01:52:15;;;;;;;6.35;3.05;;;19.00;97.40;;;;;;5055781;28;20044;-67
2022/07/31 01:54:44;;;;;;;8.60;2.83;;;19.00;97.50;;;;;;5039436;28;20395;-66
2022/07/31 01:57:10;;;;;;;7.40;2.90;;;19.00;97.50;;;;;;5076086;28;20489;-66
2022/07/31 01:59:41;;;;;;;7.80;2.30;;;18.90;97.50;;;;;;5065444;28;20045;-66
2022/07/31 02:02:07;;;;;;;6.32;2.33;;;18.90;97.60;;;;;;5071132;28;20078;-67
2022/07/31 02:04:37;;;;;;;7.72;2.60;;;18.90;97.60;;;;;;5066011;28;20066;-66
2022/07/31 02:07:03;;;;;;;3.92;2.30;;;18.90;97.60;;;;;;5072808;28;20044;-65
2022/07/31 02:09:32;;;;;;;5.78;2.50;;;18.90;97.70;;;;;;5070268;28;20555;-66
2022/07/31 02:11:59;;;;;;;5.43;2.28;;;18.90;97.70;;;;;;5072057;28;20052;-66
2022/07/31 02:14:26;;;;;;;7.85;2.40;;;18.90;97.60;;;;;;5084042;28;20040;-65
2022/07/31 02:16:52;;;;;;;4.55;2.60;;;18.90;97.70;;;;;;5073798;28;20045;-66
2022/07/31 02:19:20;;;;;;;4.15;2.50;;;18.90;97.70;;;;;;5071282;28;20056;-66
2022/07/31 02:21:46;;;;;;;6.40;2.38;;;18.80;97.70;;;;;;5044783;28;20041;-68
2022/07/31 02:24:12;;;;;;;6.43;2.78;;;18.90;97.80;;;;;;5053809;28;20051;-67
2022/07/31 02:26:39;;;;;;;8.38;2.80;;;18.90;97.80;;;;;;5053355;28;20112;-68
2022/07/31 02:29:11;;;;;;;5.47;2.40;;;18.90;97.90;;;;;;5053306;28;20083;-67
2022/07/31 02:31:40;;;;;;;4.90;2.70;;;18.90;97.90;;;;;;5043583;28;20044;-66
2022/07/31 02:34:05;;;;;;;6.10;2.30;;;18.80;98.00;;;;;;5072012;28;20071;-66
2022/07/31 02:36:33;;;;;;;7.60;2.40;;;18.80;98.00;;;;;;5053626;28;20504;-65
2022/07/31 02:39:01;;;;;;;10.98;3.03;;;18.80;98.00;;;;;;5055325;28;20142;-67
2022/07/31 02:41:27;;;;;;;7.97;2.58;;;18.80;98.00;;;;;;5035003;28;20048;-66
2022/07/31 02:43:53;;;;;;;5.35;2.60;;;18.80;98.00;;;;;;5053479;28;20052;-66
2022/07/31 02:46:19;;;;;;;6.43;2.58;;;18.80;97.90;;;;;;5052846;28;20120;-66
2022/07/31 02:48:45;;;;;;;4.25;2.50;;;18.80;97.90;;;;;;5057863;28;20581;-66
2022/07/31 02:51:11;;;;;;;6.18;2.47;;;18.80;98.00;;;;;;5072890;28;20123;-66
2022/07/31 02:53:37;;;;;;;6.03;2.60;;;18.80;98.00;;;;;;5066143;28;20117;-65
2022/07/31 02:56:05;;;;;;;8.43;2.47;;;18.80;98.00;;;;;;5035055;28;20041;-66
2022/07/31 02:58:30;;;;;;;9.88;2.70;;;18.80;98.30;;;;;;5065455;28;20502;-66
2022/07/31 03:01:01;;;;;;;8.30;2.72;;;18.80;98.00;;;;;;5072580;28;20044;-65
2022/07/31 03:03:30;;;;;;;5.80;2.38;;;18.80;98.00;;;;;;5032762;28;20566;-66
2022/07/31 03:05:56;;;;;;;4.97;2.47;;;18.80;98.00;;;;;;5072352;28;20055;-66
2022/07/31 03:08:22;;;;;;;7.85;2.65;;;18.80;98.10;;;;;;5054207;28;20048;-66
2022/07/31 03:10:48;;;;;;;4.97;2.60;;;18.70;98.10;;;;;;5071437;28;20445;-66
2022/07/31 03:13:15;;;;;;;10.50;2.97;;;18.70;98.10;;;;;;5035343;28;20040;-65
2022/07/31 03:15:42;;;;;;;5.05;2.53;;;18.70;98.10;;;;;;5072250;28;20426;-66
2022/07/31 03:18:13;;;;;;;5.78;2.33;;;18.70;98.10;;;;;;5072572;28;20178;-66
2022/07/31 03:20:41;;;;;;;7.55;2.90;;;18.80;98.20;;;;;;5055362;28;20067;-65
2022/07/31 03:23:10;;;;;;;5.43;2.65;;;18.70;98.20;;;;;;5052109;28;20072;-66
2022/07/31 03:25:39;;;;;;;6.15;2.50;;;18.70;98.20;;;;;;5052100;28;20041;-66
2022/07/31 03:28:04;;;;;;;4.18;2.42;;;18.70;98.20;;;;;;5052301;28;20068;-66
2022/07/31 03:30:30;;;;;;;6.82;2.65;;;18.60;98.20;;;;;;5052796;28;20103;-68
2022/07/31 03:32:56;;;;;;;5.50;2.47;;;18.60;98.30;;;;;;5052359;28;20407;-66
2022/07/31 03:35:23;;;;;;;4.75;2.30;;;18.60;98.30;;;;;;5055551;28;20041;-67
2022/07/31 03:37:49;;;;;;;8.20;2.57;;;18.60;98.30;;;;;;5052405;28;20120;-65
2022/07/31 03:40:15;;;;;;;7.72;2.50;;;18.50;98.40;;;;;;5034819;28;20049;-66
2022/07/31 03:42:41;;;;;;;8.30;3.25;;;18.50;98.40;;;;;;5062671;28;20505;-66
2022/07/31 03:45:09;;;;;;;6.53;2.60;;;18.50;98.50;;;;;;5072210;28;20055;-67
2022/07/31 03:47:35;;;;;;;4.18;2.47;;;18.40;98.50;;;;;;5051328;28;20055;-66
2022/07/31 03:50:01;;;;;;;9.27;2.70;;;18.40;98.60;;;;;;5057844;28;20421;-67
2022/07/31 03:52:28;;;;;;;5.00;2.72;;;18.40;98.60;;;;;;5075285;28;20119;-66
2022/07/31 03:54:57;;;;;;;5.97;2.75;;;18.40;98.70;;;;;;5066784;28;20128;-68
2022/07/31 03:57:24;;;;;;;5.43;2.83;;;18.40;98.70;;;;;;5056266;28;20136;-66
2022/07/31 03:59:50;;;;;;;7.35;2.85;;;18.40;98.80;;;;;;5057051;28;20041;-66
2022/07/31 04:02:16;;;;;;;3.70;2.35;;;18.30;98.90;;;;;;5056159;28;20049;-67
2022/07/31 04:04:43;;;;;;;6.97;2.88;;;18.30;99.00;;;;;;5060140;28;20406;-67
2022/07/31 04:07:09;;;;;;;6.63;2.60;;;18.30;99.00;;;;;;5058094;28;20044;-66
2022/07/31 04:09:35;;;;;;;4.20;2.47;;;18.30;99.10;;;;;;5075782;28;20053;-66
2022/07/31 04:12:01;;;;;;;6.30;2.38;;;18.30;99.10;;;;;;5074779;28;20045;-67
2022/07/31 04:14:27;;;;;;;6.13;2.60;;;18.30;99.20;;;;;;5066705;28;20040;-68
2022/07/31 04:16:52;;;;;;;6.03;2.97;;;18.30;99.20;;;;;;5075813;28;20045;-67
2022/07/31 04:19:18;;;;;;;8.95;3.20;;;18.30;99.20;;;;;;5040775;28;20045;-65
2022/07/31 04:21:49;;;;;;;6.50;2.40;;;18.30;99.30;;;;;;5069473;28;20536;-66
2022/07/31 04:24:17;;;;;;;3.53;2.50;;;18.40;99.40;;;;;;5054627;28;20125;-66
2022/07/31 04:26:43;;;;;;;;;;;18.40;99.40;;;;;;5038759;28;20041;-66
2022/07/31 04:29:09;;;;;;;7.35;2.42;;;18.40;99.80;;;;;;5055888;28;19921;-65
2022/07/31 04:31:34;;;;;;;6.47;2.50;;;18.40;99.60;;;;;;5037943;28;20110;-66
2022/07/31 04:34:02;;;;;;;5.60;2.53;;;18.40;99.60;;;;;;5055911;28;20072;-66
2022/07/31 04:36:27;;;;;;;6.45;2.55;;;18.40;99.70;;;;;;5038183;28;20048;-67
2022/07/31 04:38:53;;;;;;;9.90;3.40;;;18.50;99.60;;;;;;5055910;28;20041;-68
2022/07/31 04:41:19;;;;;;;4.82;2.42;;;18.50;99.60;;;;;;5074563;28;20442;-66
2022/07/31 04:43:44;;;;;;;5.10;2.25;;;18.50;99.70;;;;;;5076156;28;20041;-67
2022/07/31 04:46:10;;;;;;;6.72;2.75;;;18.50;99.70;;;;;;5076687;28;20041;-68
2022/07/31 04:48:39;;;;;;;6.97;2.63;;;18.50;99.60;;;;;;5069633;28;20037;-66
2022/07/31 04:51:05;;;;;;;8.05;2.60;;;18.50;99.60;;;;;;5065480;28;20371;-65
2022/07/31 04:53:31;;;;;;;5.00;2.47;;;18.50;99.60;;;;;;5057394;28;20238;-67
2022/07/31 04:58:44;;;;;;;6.65;3.22;;;18.50;99.60;;;;;;5060414;28;20064;-66
2022/07/31 05:01:10;;;;;;;4.03;2.40;;;18.60;99.60;;;;;;5038650;28;20045;-67
2022/07/31 05:03:35;;;;;;;7.72;2.80;;;18.50;99.60;;;;;;5037465;28;20056;-65
2022/07/31 05:06:11;;;;;;;4.88;2.70;;;18.60;99.60;;;;;;5063242;28;20051;-66
2022/07/31 05:08:38;;;;;;;4.75;2.90;;;18.60;99.60;;;;;;5075268;28;20052;-65
2022/07/31 05:11:23;;;;;;;4.03;2.50;;;18.60;99.60;;;;;;5071879;28;20490;-67
2022/07/31 05:13:55;;;;;;;8.43;3.05;;;18.60;99.60;;;;;;5069067;28;20041;-66
2022/07/31 05:16:22;;;;;;;5.82;2.75;;;18.60;99.60;;;;;;5055062;28;20041;-66
2022/07/31 05:18:48;;;;;;;7.28;3.25;;;18.70;99.60;;;;;;5054778;28;20522;-66
2022/07/31 05:21:15;;;;;;;5.47;3.03;;;18.70;99.60;;;;;;5062060;28;20356;-66
2022/07/31 05:23:45;;;;;;;5.55;3.10;;;18.70;99.70;;;;;;5056874;28;20094;-67
2022/07/31 05:26:12;;;;;;;14.85;3.15;;;18.80;99.70;;;;;;5040879;28;20606;-66
2022/07/31 05:28:39;;;;;;;4.60;2.95;;;18.80;99.70;;;;;;5036950;28;20196;-67
2022/07/31 05:31:06;;;;;;;10.25;3.55;;;18.80;99.70;;;;;;5055001;28;20103;-66
2022/07/31 05:33:32;;;;;;;6.10;3.40;;;18.80;99.70;;;;;;5054357;28;20124;-66
2022/07/31 05:35:59;;;;;;;7.13;2.88;;;18.80;99.60;;;;;;5040591;28;20302;-66
2022/07/31 05:38:26;;;;;;;7.07;3.10;;;18.80;99.60;;;;;;5078005;28;20063;-66
2022/07/31 05:40:52;;;;;;;4.38;3.30;;;18.90;99.70;;;;;;5060179;28;20052;-65
2022/07/31 05:43:18;;;;;;;4.97;3.00;;;18.80;99.70;;;;;;5046821;28;20098;-67
2022/07/31 05:45:45;;;;;;;11.35;3.47;;;18.80;99.70;;;;;;5076103;28;20049;-68
2022/07/31 05:48:15;;;;;;;4.68;3.00;;;18.90;99.70;;;;;;5069248;28;20080;-66
2022/07/31 05:50:42;;;;;;;5.82;3.30;;;18.90;99.80;;;;;;5055659;28;20056;-66
2022/07/31 05:53:11;;;;;;;6.50;3.20;;;18.90;99.70;;;;;;5073434;28;20118;-67
2022/07/31 05:55:38;;;;;;;5.90;3.55;;;18.90;99.80;;;;;;5056229;28;20289;-66
2022/07/31 05:58:04;;;;;;;8.65;3.40;;;19.00;99.80;;;;;;5056143;28;20044;-66
2022/07/31 06:00:30;;;;;;;5.88;3.75;;;19.00;99.80;;;;;;5074403;28;20041;-67
2022/07/31 06:02:58;;;;;;;5.60;3.10;;;19.10;99.80;;;;;;5056826;28;20225;-66
2022/07/31 06:05:28;;;;;;;11.30;3.05;;;19.10;99.80;;;;;;5075966;28;20132;-66
2022/07/31 06:07:55;;;;;;;6.53;3.05;;;19.10;99.90;;;;;;5055841;28;20040;-65
2022/07/31 06:10:21;;;;;;;8.25;3.28;;;19.20;99.90;;;;;;5072124;28;20063;-67
2022/07/31 06:12:47;;;;;;;4.45;3.13;;;19.20;99.90;;;;;;5075513;28;20047;-65
2022/07/31 06:15:13;;;;;;;7.00;3.05;;;19.30;99.90;;;;;;5073987;28;20495;-66
2022/07/31 06:17:40;;;;;;;8.82;3.35;;;19.30;99.90;;;;;;5075615;28;20085;-66
2022/07/31 06:20:09;;;;;;;4.53;3.00;;;19.30;99.90;;;;;;5057734;28;20090;-65
2022/07/31 06:22:36;;;;;;;6.05;3.08;;;19.40;99.90;;;;;;5050627;28;20475;-66
2022/07/31 06:25:02;;;;;;;6.60;3.00;;;19.40;99.80;;;;;;5074286;28;20041;-67
2022/07/31 06:27:28;;;;;;;6.70;3.40;;;19.50;99.80;;;;;;5057215;28;20156;-65
2022/07/31 06:29:55;;;;;;;5.70;3.25;;;19.60;99.80;;;;;;5073768;28;20102;-66
2022/07/31 06:32:24;;;;;;;5.90;3.25;;;19.60;99.80;;;;;;5037684;28;20553;-66
2022/07/31 06:34:49;;;;;;;8.98;3.25;;;19.70;99.80;;;;;;5054967;28;20044;-68
2022/07/31 06:37:15;;;;;;;5.57;3.45;;;19.70;99.70;;;;;;5043143;28;20379;-68
2022/07/31 06:39:44;;;;;;;5.10;3.63;;;19.80;99.60;;;;;;5056858;28;20557;-66
2022/07/31 06:42:09;;;;;;;6.65;3.85;;;19.90;99.50;;;;;;5073628;28;20084;-66
2022/07/31 06:44:35;;;;;;;8.65;3.72;;;19.90;99.40;;;;;;5055206;28;20037;-65
2022/07/31 06:47:01;;;;;;;8.02;3.72;;;20.00;99.30;;;;;;5053098;28;20078;-67
2022/07/31 06:49:26;;;;;;;7.40;3.67;;;20.10;99.30;;;;;;5074628;28;20080;-66
2022/07/31 06:51:52;;;;;;;8.32;3.83;;;20.10;99.20;;;;;;5065775;28;20041;-67
2022/07/31 06:54:21;;;;;;;10.63;4.00;;;20.20;99.20;;;;;;5056570;28;20080;-66
2022/07/31 06:56:46;;;;;;;7.45;4.22;;;20.30;99.10;;;;;;5073431;28;20096;-66
2022/07/31 06:59:12;;;;;;;5.88;3.85;;;20.30;98.90;;;;;;5036754;28;20124;-65
2022/07/31 07:01:38;;;;;;;9.65;4.28;;;20.30;98.80;;;;;;5054643;28;20099;-67
2022/07/31 07:04:04;;;;;;;10.07;3.85;;;20.40;98.80;;;;;;5035789;28;20045;-67
2022/07/31 07:06:29;;;;;;;9.75;4.25;;;20.40;98.70;;;;;;5053567;28;20053;-65
2022/07/31 07:08:55;;;;;;;10.02;3.80;;;20.40;98.80;;;;;;5044517;28;20048;-67
2022/07/31 07:11:21;;;;;;;7.43;4.05;;;20.40;98.80;;;;;;5034926;28;20490;-67
2022/07/31 07:13:48;;;;;;;6.15;3.72;;;20.50;98.80;;;;;;5060086;28;20048;-67
2022/07/31 07:16:14;;;;;;;9.50;4.43;;;20.50;98.80;;;;;;5055809;28;20070;-67
2022/07/31 07:18:43;;;;;;;7.45;4.03;;;20.60;98.70;;;;;;5054711;28;20481;-68
2022/07/31 07:21:09;;;;;;;6.63;3.65;;;20.60;98.70;;;;;;5060759;28;20041;-67
2022/07/31 07:23:35;;;;;;;8.05;3.95;;;20.60;98.60;;;;;;5064204;28;20072;-67
2022/07/31 07:26:01;;;;;;;6.68;3.70;;;20.60;98.70;;;;;;5073105;28;20079;-66
2022/07/31 07:28:26;;;;;;;6.93;4.10;;;20.60;98.60;;;;;;5070697;28;20044;-67
2022/07/31 07:30:52;;;;;;;9.35;4.35;;;20.70;98.70;;;;;;5017967;28;20103;-66
2022/07/31 07:33:18;;;;;;;6.82;3.42;;;20.70;98.70;;;;;;5052925;28;20037;-66
2022/07/31 07:35:43;;;;;;;6.97;4.28;;;20.80;98.70;;;;;;5052350;28;20107;-67
2022/07/31 07:38:09;;;;;;;7.85;4.45;;;20.80;98.60;;;;;;5053576;28;20072;-65
2022/07/31 07:40:35;;;;;;;9.65;4.35;;;20.90;98.50;;;;;;5034848;28;20127;-65
2022/07/31 07:43:00;;;;;;;7.00;4.10;;;20.90;98.50;;;;;;5052819;28;20045;-68
2022/07/31 07:45:26;;;;;;;6.97;4.40;;;20.90;98.50;;;;;;5069652;28;20052;-66
2022/07/31 07:47:52;;;;;;;5.10;4.20;;;21.00;98.40;;;;;;5072483;28;20041;-67
2022/07/31 07:50:18;;;;;;;18.10;5.28;;;21.00;98.30;;;;;;5041172;28;20106;-65
2022/07/31 07:52:44;;;;;;;7.45;4.80;;;21.10;98.20;;;;;;5052185;28;20045;-66
2022/07/31 07:55:11;;;;;;;6.15;3.80;;;21.10;98.00;;;;;;5071381;28;20048;-65
2022/07/31 07:57:37;;;;;;;7.35;4.70;;;21.20;98.10;;;;;;5066004;28;20048;-66
2022/07/31 08:00:09;;;;;;;6.32;4.78;;;21.20;97.90;;;;;;5052306;28;20045;-67
2022/07/31 08:02:35;;;;;;;11.40;4.90;;;21.30;98.00;;;;;;5034645;28;20049;-66
2022/07/31 08:05:01;;;;;;;8.18;4.68;;;21.40;97.80;;;;;;5067719;28;20435;-66
2022/07/31 08:07:40;;;;;;;8.50;5.05;;;21.50;97.50;;;;;;5071976;28;20052;-66
2022/07/31 08:10:10;;;;;;;5.95;4.70;;;21.60;97.30;;;;;;5070722;28;20206;-66
2022/07/31 08:12:39;;;;;;;7.55;5.13;;;21.70;97.40;;;;;;5071647;28;20139;-65
2022/07/31 08:15:08;;;;;;;9.90;5.20;;;21.90;97.40;;;;;;5051716;28;20045;-68
2022/07/31 08:17:34;;;;;;;17.77;4.63;;;22.10;97.40;;;;;;5051198;28;20049;-65
2022/07/31 08:20:00;;;;;;;10.48;5.38;;;22.10;97.40;;;;;;5052074;28;20036;-66
2022/07/31 08:22:25;;;;;;;9.30;5.38;;;22.20;97.30;;;;;;5033737;28;20045;-66
2022/07/31 08:24:51;;;;;;;10.57;5.18;;;22.30;97.30;;;;;;5065221;28;20044;-67
2022/07/31 08:27:26;;;;;;;7.43;4.43;;;22.30;97.20;;;;;;5071309;28;20102;-68
2022/07/31 08:29:54;;;;;;;9.57;4.80;;;22.20;97.30;;;;;;5052048;28;20071;-65
2022/07/31 08:32:20;;;;;;;8.68;4.95;;;22.30;97.30;;;;;;5051327;28;20053;-67
2022/07/31 08:34:52;;;;;;;10.10;4.38;;;22.20;97.20;;;;;;5055900;28;20045;-68
2022/07/31 08:37:18;;;;;;;9.40;4.32;;;22.30;97.30;;;;;;5037362;28;20065;-67
2022/07/31 08:39:45;;;;;;;9.98;4.75;;;22.30;97.40;;;;;;5066160;28;20040;-66
2022/07/31 08:42:11;;;;;;;8.93;4.82;;;22.40;97.40;;;;;;5070016;28;20037;-66
2022/07/31 08:44:41;;;;;;;11.63;4.85;;;22.40;97.50;;;;;;5054916;28;20037;-68
2022/07/31 08:47:14;;;;;;;9.02;4.78;;;22.40;97.40;;;;;;5070981;28;20041;-67
2022/07/31 08:49:48;;;;;;;6.82;5.13;;;22.40;97.30;;;;;;5075465;28;20047;-67
2022/07/31 08:52:24;;;;;;;10.10;4.40;;;22.40;97.40;;;;;;5061047;28;20045;-67
2022/07/31 08:54:52;;;;;;;7.78;4.70;;;22.40;97.60;;;;;;5062487;28;20063;-67
2022/07/31 08:57:18;;;;;;;;;;;22.30;97.80;;;;;;5073578;28;20044;-67
2022/07/31 08:59:44;;;;;;;11.30;5.55;;;22.30;98.30;;;;;;5075340;28;19920;-66
2022/07/31 09:02:11;;;;;;;7.75;4.63;;;22.20;98.20;;;;;;5065114;28;20041;-66
2022/07/31 09:04:42;;;;;;;10.13;5.30;;;22.10;98.50;;;;;;5054804;28;20065;-66
2022/07/31 09:07:18;;;;;;;8.68;5.10;;;22.10;99.10;;;;;;5054051;28;20640;-65
2022/07/31 09:09:46;;;;;;;7.60;5.43;;;22.00;99.50;;;;;;5070735;28;20469;-67
2022/07/31 09:12:12;;;;;;;12.05;6.10;;;21.90;99.90;;;;;;5054749;28;20107;-67
2022/07/31 09:14:41;;;;;;;11.30;6.28;;;21.90;99.90;;;;;;5054604;28;20079;-67
2022/07/31 09:17:08;;;;;;;10.70;6.32;;;21.80;99.90;;;;;;5054526;28;20125;-66
2022/07/31 09:19:40;;;;;;;13.18;7.85;;;21.80;99.90;;;;;;5054418;28;20119;-66
2022/07/31 09:22:06;;;;;;;14.23;7.15;;;21.70;99.90;;;;;;5053301;28;20126;-66
2022/07/31 09:24:33;;;;;;;12.85;7.93;;;21.60;99.90;;;;;;5057976;28;20033;-66
2022/07/31 09:27:07;;;;;;;14.38;7.57;;;21.60;99.90;;;;;;5067658;28;20052;-67
2022/07/31 09:29:38;;;;;;;14.13;7.82;;;21.50;99.90;;;;;;5054352;28;20124;-65
2022/07/31 09:32:07;;;;;;;15.80;8.80;;;21.50;99.90;;;;;;5017139;28;20067;-68
2022/07/31 09:34:33;;;;;;;13.15;8.55;;;21.40;99.90;;;;;;5034130;28;20056;-67
2022/07/31 09:37:10;;;;;;;15.25;9.25;;;21.40;99.90;;;;;;5034310;28;20057;-66
2022/07/31 09:39:36;;;;;;;13.75;9.40;;;21.50;99.90;;;;;;5017349;28;20430;-66
2022/07/31 09:42:03;;;;;;;16.40;10.00;;;21.40;99.90;;;;;;5016520;28;20053;-67
2022/07/31 09:44:43;;;;;;;14.68;9.70;;;21.40;99.90;;;;;;5034440;28;20125;-67
2022/07/31 09:47:29;;;;;;;14.50;9.35;;;21.40;99.90;;;;;;5051737;28;20048;-67
2022/07/31 09:50:01;;;;;;;15.57;10.90;;;21.30;99.90;;;;;;5033371;28;20092;-68
2022/07/31 09:52:29;;;;;;;12.20;10.40;;;21.20;99.90;;;;;;5032710;28;20124;-66
2022/07/31 09:55:14;;;;;;;18.35;11.85;;;21.10;99.90;;;;;;5036550;28;20466;-67
2022/07/31 09:57:55;;;;;;;16.50;10.95;;;21.00;99.90;;;;;;5053586;28;20045;-67
2022/07/31 10:00:21;;;;;;;13.98;10.75;;;21.00;99.90;;;;;;5053180;28;20045;-67
2022/07/31 10:02:48;;;;;;;13.75;10.13;;;20.90;99.90;;;;;;5035902;28;20061;-66
2022/07/31 10:05:14;;;;;;;19.02;11.65;;;20.70;99.90;;;;;;5015433;28;20045;-67
2022/07/31 10:07:41;;;;;;;19.50;12.10;;;20.80;99.90;;;;;;5033704;28;20049;-68
2022/07/31 10:10:09;;;;;;;16.70;12.20;;;20.70;99.90;;;;;;5032797;28;20049;-67
2022/07/31 10:12:40;;;;;;;21.00;12.15;;;20.70;99.90;;;;;;5053424;28;20076;-66
2022/07/31 10:15:15;;;;;;;19.60;12.18;;;20.70;99.90;;;;;;5046379;28;20115;-66
2022/07/31 10:17:47;;;;;;;15.27;11.93;;;20.70;99.90;;;;;;5033390;28;20034;-66
2022/07/31 10:20:20;;;;;;;16.65;12.07;;;20.70;99.90;;;;;;5016623;28;20045;-66
2022/07/31 10:22:55;;;;;;;13.63;11.45;;;20.70;99.90;;;;;;5033770;28;20048;-66
2022/07/31 10:25:28;;;;;;;18.05;12.20;;;20.60;99.90;;;;;;5028757;28;20052;-66
2022/07/31 10:27:56;;;;;;;18.70;12.63;;;20.60;99.90;;;;;;5021527;28;20049;-66
2022/07/31 10:30:22;;;;;;;18.25;13.20;;;20.60;99.90;;;;;;5032953;28;20049;-67
2022/07/31 10:32:49;;;;;;;18.57;12.83;;;20.60;99.90;;;;;;5052528;28;20049;-65
2022/07/31 10:35:17;;;;;;;19.23;11.98;;;20.60;99.90;;;;;;5068006;28;20060;-67
2022/07/31 10:38:10;;;;;;;18.23;12.25;;;20.60;99.90;;;;;;5072908;28;20036;-66
2022/07/31 10:40:43;;;;;;;20.42;13.32;;;20.60;99.90;;;;;;5044491;28;20037;-68
2022/07/31 10:43:12;;;;;;;20.85;13.15;;;20.60;99.90;;;;;;5018737;28;20456;-67
2022/07/31 10:45:52;;;;;;;21.27;13.60;;;20.50;99.90;;;;;;5040670;28;20383;-68
2022/07/31 10:48:19;;;;;;;18.73;14.65;;;20.40;99.90;;;;;;5055550;28;20106;-67
2022/07/31 10:50:45;;;;;;;22.77;14.80;;;20.40;99.90;;;;;;5061003;28;20041;-67
2022/07/31 10:53:14;;;;;;;21.85;16.08;;;20.40;99.90;;;;;;5053643;28;20037;-69
2022/07/31 10:55:41;;;;;;;22.05;14.35;;;20.40;99.90;;;;;;5071017;28;20040;-68
2022/07/31 10:58:18;;;;;;;23.73;16.38;;;20.40;99.90;;;;;;5056457;28;20406;-67
2022/07/31 11:00:44;;;;;;;20.40;15.65;;;20.40;99.90;;;;;;5035253;28;20036;-69
2022/07/31 11:03:17;;;;;;;21.83;16.20;;;20.30;99.90;;;;;;5053458;28;20040;-69
2022/07/31 11:05:57;;;;;;;26.08;17.50;;;20.30;99.90;;;;;;5052783;28;20051;-69
2022/07/31 11:08:23;;;;;;;27.05;16.23;;;20.20;99.90;;;;;;5018805;28;20045;-70
2022/07/31 11:10:52;;;;;;;25.05;17.13;;;20.20;99.90;;;;;;5063636;28;20483;-69
2022/07/31 11:13:19;;;;;;;27.70;17.58;;;20.10;99.90;;;;;;5047355;28;20498;-68
2022/07/31 11:15:45;;;;;;;21.63;16.17;;;20.10;99.90;;;;;;5049011;28;20048;-68
2022/07/31 11:18:16;;;;;;;25.05;17.92;;;20.00;99.90;;;;;;5034769;28;20049;-69
2022/07/31 11:20:45;;;;;;;25.75;17.60;;;20.00;99.90;;;;;;5035194;28;20044;-69
2022/07/31 11:23:16;;;;;;;25.73;18.00;;;20.00;99.90;;;;;;5049689;28;20053;-68
2022/07/31 11:25:45;;;;;;;26.10;18.73;;;20.00;99.90;;;;;;5035450;28;20076;-68
2022/07/31 11:28:23;;;;;;;22.85;18.40;;;20.00;99.90;;;;;;5056770;28;20079;-69
2022/07/31 11:31:03;;;;;;;28.05;19.30;;;20.00;99.90;;;;;;5051214;28;20402;-69
2022/07/31 11:33:37;;;;;;;28.92;19.80;;;20.00;99.90;;;;;;5042134;28;20486;-69
2022/07/31 11:36:22;;;;;;;28.30;20.25;;;19.90;99.90;;;;;;5054677;28;20486;-72
2022/07/31 11:38:50;;;;;;;30.42;20.67;;;19.90;99.90;;;;;;5021311;28;20514;-69
2022/07/31 11:41:17;;;;;;;29.48;19.70;;;19.80;99.90;;;;;;5052927;28;20040;-69
2022/07/31 11:43:44;;;;;;;30.77;20.43;;;19.70;99.90;;;;;;5062011;28;20032;-69
2022/07/31 11:46:23;;;;;;;27.33;20.45;;;19.70;99.90;;;;;;5070667;28;20080;-69
2022/07/31 11:48:49;;;;;;;30.15;20.67;;;19.70;99.90;;;;;;5072673;28;20048;-68
2022/07/31 11:51:19;;;;;;;24.55;18.13;;;19.60;99.90;;;;;;5073171;28;20116;-68
2022/07/31 11:53:45;;;;;;;25.05;18.00;;;19.60;99.90;;;;;;5073713;28;20495;-68
2022/07/31 11:56:11;;;;;;;21.20;17.60;;;19.60;99.90;;;;;;5072065;28;20044;-68
2022/07/31 11:58:40;;;;;;;36.63;19.70;;;19.50;99.90;;;;;;5050341;28;20038;-68
2022/07/31 12:01:06;;;;;;;27.35;19.98;;;19.60;99.90;;;;;;5052608;28;20398;-67
2022/07/31 12:03:37;;;;;;;27.77;20.08;;;19.60;99.90;;;;;;5035165;28;20368;-69
2022/07/31 12:06:05;;;;;;;30.15;19.20;;;19.50;99.90;;;;;;5053216;28;20082;-68
2022/07/31 12:08:33;;;;;;;31.15;21.20;;;19.40;99.90;;;;;;5056713;28;20049;-69
2022/07/31 12:11:01;;;;;;;35.50;20.17;;;19.30;99.90;;;;;;5043983;28;20478;-68
2022/07/31 12:13:28;;;;;;;35.92;22.30;;;19.30;99.90;;;;;;5076170;28;20051;-69
2022/07/31 12:16:02;;;;;;;37.40;21.75;;;19.20;99.90;;;;;;5058692;28;20046;-68
2022/07/31 12:18:30;;;;;;;37.72;23.15;;;19.20;99.90;;;;;;5058599;28;20436;-72
2022/07/31 12:21:00;;;;;;;33.15;21.65;;;19.10;99.90;;;;;;5058476;28;20110;-70
2022/07/31 12:23:40;;;;;;;38.83;24.08;;;19.10;99.90;;;;;;5075577;28;20060;-70
2022/07/31 12:26:05;;;;;;;38.30;24.42;;;19.10;99.90;;;;;;5041078;28;20033;-69
2022/07/31 12:28:34;;;;;;;35.95;24.67;;;19.10;99.90;;;;;;5032538;28;20189;-68
2022/07/31 12:31:00;;;;;;;36.28;23.23;;;19.10;99.90;;;;;;5061567;28;20486;-69
2022/07/31 12:33:29;;;;;;;35.13;21.60;;;19.10;99.90;;;;;;5075912;28;20048;-67
2022/07/31 12:35:55;;;;;;;29.60;20.90;;;19.10;99.90;;;;;;5059042;28;20087;-67
2022/07/31 12:38:27;;;;;;;27.52;19.52;;;19.00;99.90;;;;;;5042258;28;20043;-67
2022/07/31 12:41:12;;;;;;;33.08;21.77;;;19.00;99.90;;;;;;5074533;28;20048;-68
2022/07/31 12:43:38;;;;;;;28.77;18.70;;;19.00;99.90;;;;;;5054828;28;20045;-69
2022/07/31 12:46:04;;;;;;;36.65;21.02;;;19.00;99.90;;;;;;5054595;28;20468;-67
2022/07/31 12:48:33;;;;;;;28.63;20.17;;;18.90;99.90;;;;;;5095438;28;20047;-65
2022/07/31 12:51:02;;;;;;;22.90;17.85;;;18.90;99.90;;;;;;5054924;28;20079;-66